createdAt,value
2018-09-27T04:29:42.309Z,99.90
2018-09-27T04:32:10.932Z,99.90
2018-09-27T04:34:39.443Z,99.90
2018-09-27T04:37:08.011Z,99.90
2018-09-27T04:39:36.534Z,99.90
2018-09-27T04:42:05.583Z,99.90
2018-09-27T04:44:35.026Z,99.90
2018-09-27T04:47:03.612Z,99.90
2018-09-27T04:49:32.437Z,99.90
2018-09-27T04:52:00.926Z,99.90
2018-09-27T04:54:29.407Z,99.90
2018-09-27T04:56:58.531Z,99.90
2018-09-27T04:59:27.027Z,99.90
2018-09-27T05:01:55.512Z,99.90
2018-09-27T05:04:23.988Z,99.90
2018-09-27T05:06:52.568Z,99.90
2018-09-27T05:09:21.036Z,99.90
2018-09-27T05:11:49.538Z,99.90
2018-09-27T05:14:18.031Z,99.90
2018-09-27T05:16:46.528Z,99.90
2018-09-27T05:19:15.046Z,99.90
2018-09-27T05:21:43.597Z,99.90
2018-09-27T05:24:12.054Z,99.90
2018-09-27T05:26:40.545Z,99.90
2018-09-27T05:29:09.516Z,99.90
2018-09-27T05:31:37.996Z,99.90
2018-09-27T05:34:06.545Z,99.90
2018-09-27T05:36:35.087Z,99.90
2018-09-27T05:39:04.854Z,99.90
2018-09-27T05:41:33.345Z,99.90
2018-09-27T05:44:01.905Z,99.90
2018-09-27T05:46:30.409Z,99.90
2018-09-27T05:48:59.185Z,99.90
2018-09-27T05:51:27.732Z,99.90
2018-09-27T05:53:56.245Z,99.90
2018-09-27T05:56:24.823Z,99.90
2018-09-27T05:58:53.361Z,99.90
2018-09-27T06:01:21.832Z,99.90
2018-09-27T06:03:50.985Z,99.90
2018-09-27T06:06:19.478Z,99.90
2018-09-27T06:08:47.974Z,99.90
2018-09-27T06:11:16.540Z,99.90
2018-09-27T06:13:46.047Z,99.90
2018-09-27T06:16:14.604Z,99.90
2018-09-27T06:18:43.962Z,99.90
2018-09-27T06:21:12.523Z,99.90
2018-09-27T06:23:41.029Z,99.90
2018-09-27T06:26:09.612Z,99.90
2018-09-27T06:28:38.137Z,99.90
2018-09-27T06:31:07.542Z,99.90
2018-09-27T06:33:36.490Z,99.90
2018-09-27T06:36:04.953Z,99.90
2018-09-27T06:38:33.488Z,99.90
2018-09-27T06:41:02.077Z,99.90
2018-09-27T06:43:30.593Z,99.90
2018-09-27T06:45:59.188Z,99.90
2018-09-27T06:48:27.900Z,99.90
2018-09-27T06:50:56.341Z,99.90
2018-09-27T06:53:25.347Z,99.90
2018-09-27T06:55:54.835Z,99.90
2018-09-27T06:58:23.361Z,99.90
2018-09-27T07:00:51.862Z,99.90
2018-09-27T07:03:20.520Z,99.90
2018-09-27T07:05:49.040Z,99.90
2018-09-27T07:08:17.664Z,99.90
2018-09-27T07:10:46.126Z,99.90
2018-09-27T07:13:14.606Z,99.90
2018-09-27T07:15:43.133Z,99.90
2018-09-27T07:18:11.542Z,99.90
2018-09-27T07:20:40.134Z,99.90
2018-09-27T07:23:08.648Z,99.90
2018-09-27T07:25:37.143Z,99.90
2018-09-27T07:28:05.840Z,99.90
2018-09-27T07:30:34.337Z,99.90
2018-09-27T07:33:02.852Z,99.90
2018-09-27T07:35:31.374Z,99.90
2018-09-27T07:37:59.868Z,99.90
2018-09-27T07:40:28.425Z,99.90
2018-09-27T07:42:56.893Z,99.90
2018-09-27T07:45:25.389Z,99.90
2018-09-27T07:47:53.865Z,99.90
2018-09-27T07:50:22.369Z,99.90
2018-09-27T07:52:50.933Z,99.90
2018-09-27T07:55:19.450Z,99.90
2018-09-27T07:57:47.928Z,99.90
2018-09-27T08:00:16.445Z,99.90
2018-09-27T08:02:44.996Z,99.90
2018-09-27T08:05:13.461Z,99.90
2018-09-27T08:07:41.962Z,99.90
2018-09-27T08:10:10.510Z,99.90
2018-09-27T08:12:39.032Z,99.90
2018-09-27T08:15:07.640Z,99.90
2018-09-27T08:17:36.180Z,99.90
2018-09-27T08:20:04.724Z,99.90
2018-09-27T08:22:33.284Z,99.90
2018-09-27T08:25:01.808Z,99.90
2018-09-27T08:27:30.315Z,99.90
2018-09-27T08:29:58.829Z,99.90
2018-09-27T08:32:27.356Z,99.90
2018-09-27T08:34:55.885Z,99.90
2018-09-27T08:37:24.444Z,99.90
2018-09-27T08:39:52.965Z,99.90
2018-09-27T08:42:21.437Z,99.90
2018-09-27T08:44:50.045Z,99.90
2018-09-27T08:47:18.425Z,99.90
2018-09-27T08:49:46.974Z,99.90
2018-09-27T08:52:15.554Z,99.90
2018-09-27T08:54:44.067Z,99.90
2018-09-27T08:57:12.534Z,99.90
2018-09-27T08:59:41.024Z,99.90
2018-09-27T09:02:09.614Z,99.90
2018-09-27T09:04:38.161Z,99.90
2018-09-27T09:07:06.737Z,99.90
2018-09-27T09:09:35.269Z,99.80
2018-09-27T09:12:03.800Z,99.60
2018-09-27T09:14:32.324Z,99.30
2018-09-27T09:17:00.801Z,98.90
2018-09-27T09:19:29.353Z,98.90
2018-09-27T09:21:57.817Z,98.60
2018-09-27T09:24:26.364Z,98.70
2018-09-27T09:26:54.829Z,97.60
2018-09-27T09:29:23.377Z,97.60
2018-09-27T09:31:51.845Z,97.70
2018-09-27T09:34:20.372Z,96.70
2018-09-27T09:36:48.866Z,97.10
2018-09-27T09:39:17.356Z,96.30
2018-09-27T09:41:45.876Z,96.50
2018-09-27T09:44:14.358Z,95.90
2018-09-27T09:46:42.950Z,95.40
2018-09-27T09:49:11.469Z,95.00
2018-09-27T09:51:41.200Z,94.80
2018-09-27T09:54:10.757Z,95.30
2018-09-27T09:56:40.483Z,94.60
2018-09-27T09:59:09.942Z,94.00
2018-09-27T10:01:38.949Z,94.00
2018-09-27T10:04:07.446Z,93.60
2018-09-27T10:06:37.052Z,93.40
2018-09-27T10:09:07.532Z,93.50
2018-09-27T10:11:36.069Z,93.00
2018-09-27T10:14:04.668Z,93.00
2018-09-27T10:16:34.488Z,92.40
2018-09-27T10:19:02.993Z,92.00
2018-09-27T10:21:31.523Z,91.60
2018-09-27T10:24:00.541Z,91.80
2018-09-27T10:26:29.067Z,91.90
2018-09-27T10:28:57.560Z,91.70
2018-09-27T10:31:26.061Z,91.50
2018-09-27T10:33:54.813Z,91.60
2018-09-27T10:36:23.358Z,91.90
2018-09-27T10:38:52.078Z,91.90
2018-09-27T10:41:20.616Z,91.60
2018-09-27T10:43:49.111Z,91.60
2018-09-27T10:46:17.700Z,91.50
2018-09-27T10:48:46.280Z,91.90
2018-09-27T10:51:14.799Z,91.80
2018-09-27T10:53:43.371Z,92.00
2018-09-27T10:56:11.893Z,91.90
2018-09-27T10:58:40.393Z,91.70
2018-09-27T11:01:08.923Z,91.40
2018-09-27T11:03:37.463Z,91.50
2018-09-27T11:06:06.081Z,91.20
2018-09-27T11:08:35.778Z,91.20
2018-09-27T11:11:05.510Z,91.00
2018-09-27T11:13:35.469Z,91.00
2018-09-27T11:16:05.231Z,90.60
2018-09-27T11:18:35.149Z,90.30
2018-09-27T11:21:03.732Z,88.90
2018-09-27T11:23:32.213Z,87.90
2018-09-27T11:26:01.899Z,87.20
2018-09-27T11:28:36.839Z,86.40
2018-09-27T11:31:11.588Z,84.00
2018-09-27T11:33:40.915Z,83.50
2018-09-27T11:36:11.158Z,81.10
2018-09-27T11:38:39.781Z,81.60
2018-09-27T11:41:11.030Z,81.50
2018-09-27T11:43:40.980Z,82.20
2018-09-27T11:46:09.867Z,82.70
2018-09-27T11:48:38.466Z,83.70
2018-09-27T11:51:08.241Z,85.10
2018-09-27T11:53:37.074Z,84.10
2018-09-27T11:56:05.695Z,85.00
2018-09-27T11:58:34.274Z,84.40
2018-09-27T12:01:02.882Z,84.60
2018-09-27T12:03:31.428Z,84.90
2018-09-27T12:05:59.978Z,84.50
2018-09-27T12:08:28.453Z,84.10
2018-09-27T12:10:56.933Z,83.00
2018-09-27T12:13:25.650Z,82.50
2018-09-27T12:15:54.170Z,83.50
2018-09-27T12:18:22.670Z,82.00
2018-09-27T12:20:51.217Z,82.40
2018-09-27T12:23:19.741Z,82.60
2018-09-27T12:25:48.233Z,81.60
2018-09-27T12:28:16.744Z,82.00
2018-09-27T12:30:45.225Z,81.20
2018-09-27T12:33:13.719Z,81.50
2018-09-27T12:35:42.221Z,81.40
2018-09-27T12:38:11.152Z,81.60
2018-09-27T12:40:39.754Z,81.40
2018-09-27T12:43:08.555Z,80.70
2018-09-27T12:45:37.123Z,80.10
2018-09-27T12:48:05.729Z,80.40
2018-09-27T12:50:34.221Z,80.40
2018-09-27T12:53:02.864Z,78.40
2018-09-27T12:55:31.249Z,79.70
2018-09-27T12:57:59.802Z,80.00
2018-09-27T13:00:28.298Z,78.80
2018-09-27T13:02:57.092Z,79.60
2018-09-27T13:05:25.526Z,80.10
2018-09-27T13:07:54.372Z,78.70
2018-09-27T13:10:23.750Z,77.90
2018-09-27T13:12:55.889Z,77.00
2018-09-27T13:15:24.429Z,77.70
2018-09-27T13:17:56.150Z,78.30
2018-09-27T13:20:30.613Z,78.20
2018-09-27T13:22:59.443Z,75.80
2018-09-27T13:25:29.177Z,75.00
2018-09-27T13:28:09.857Z,77.60
2018-09-27T13:30:43.649Z,76.20
2018-09-27T13:33:12.556Z,76.50
2018-09-27T13:35:41.067Z,74.60
2018-09-27T13:38:10.184Z,75.20
2018-09-27T13:40:38.928Z,75.50
2018-09-27T13:43:07.511Z,75.30
2018-09-27T13:45:36.038Z,74.40
2018-09-27T13:48:04.619Z,73.50
2018-09-27T13:50:33.947Z,73.20
2018-09-27T13:53:02.814Z,73.40
2018-09-27T13:55:31.428Z,72.50
2018-09-27T13:58:00.022Z,68.20
2018-09-27T14:00:28.934Z,59.70
2018-09-27T14:02:58.444Z,49.60
2018-09-27T14:05:27.214Z,38.30
2018-09-27T14:07:55.889Z,32.40
2018-09-27T14:10:24.650Z,29.70
2018-09-27T14:12:53.265Z,26.70
2018-09-27T14:15:21.939Z,24.40
2018-09-27T14:17:50.582Z,24.90
2018-09-27T14:20:19.097Z,24.10
2018-09-27T14:22:47.595Z,22.00
2018-09-27T14:25:16.222Z,21.30
2018-09-27T14:27:46.480Z,21.30
2018-09-27T14:30:16.132Z,21.80
2018-09-27T14:32:44.650Z,20.90
2018-09-27T14:35:13.671Z,21.20
2018-09-27T14:37:46.362Z,21.60
2018-09-27T14:40:15.828Z,22.00
2018-09-27T14:42:45.219Z,21.60
2018-09-27T14:45:15.410Z,22.70
2018-09-27T14:47:44.882Z,22.80
2018-09-27T14:50:16.391Z,23.10
2018-09-27T14:52:48.064Z,23.40
2018-09-27T14:55:16.680Z,22.70
2018-09-27T14:57:45.161Z,23.50
2018-09-27T15:00:13.670Z,23.80
2018-09-27T15:02:44.219Z,23.80
2018-09-27T15:05:15.477Z,24.20
2018-09-27T15:07:45.838Z,24.20
2018-09-27T15:10:15.393Z,23.70
2018-09-27T15:12:45.677Z,24.50
2018-09-27T15:15:17.576Z,25.60
2018-09-27T15:17:50.321Z,29.40
2018-09-27T15:20:20.024Z,30.70
2018-09-27T15:22:48.746Z,34.50
2018-09-27T15:25:21.977Z,36.10
2018-09-27T15:27:50.575Z,37.20
2018-09-27T15:30:22.152Z,38.90
2018-09-27T15:32:51.726Z,41.00
2018-09-27T15:35:21.960Z,42.90
2018-09-27T15:37:54.450Z,43.40
2018-09-27T15:40:23.188Z,41.50
2018-09-27T15:42:53.156Z,42.60
2018-09-27T15:45:21.928Z,43.10
2018-09-27T15:47:50.608Z,44.50
2018-09-27T15:50:20.277Z,46.30
2018-09-27T15:52:51.413Z,46.90
2018-09-27T15:55:20.136Z,46.80
2018-09-27T15:57:50.152Z,47.20
2018-09-27T16:00:18.924Z,45.40
2018-09-27T16:02:47.845Z,47.30
2018-09-27T16:05:17.804Z,47.90
2018-09-27T16:07:46.846Z,49.20
2018-09-27T16:10:15.702Z,50.60
2018-09-27T16:12:46.540Z,52.20
2018-09-27T16:15:15.227Z,54.10
2018-09-27T16:17:45.296Z,54.90
2018-09-27T16:20:14.172Z,55.60
2018-09-27T16:22:44.261Z,55.30
2018-09-27T16:25:14.391Z,56.00
2018-09-27T16:27:42.962Z,58.40
2018-09-27T16:30:13.856Z,59.20
2018-09-27T16:32:42.464Z,60.70
2018-09-27T16:35:10.984Z,62.70
2018-09-27T16:37:39.464Z,62.90
2018-09-27T16:40:08.048Z,63.40
2018-09-27T16:42:36.517Z,63.50
2018-09-27T16:45:05.301Z,63.50
2018-09-27T16:47:33.805Z,63.70
2018-09-27T16:50:02.406Z,64.40
2018-09-27T16:52:30.917Z,64.70
2018-09-27T16:55:00.002Z,64.30
2018-09-27T16:57:28.464Z,65.40
2018-09-27T16:59:57.281Z,66.70
2018-09-27T17:02:26.115Z,67.10
2018-09-27T17:04:56.288Z,67.60
2018-09-27T17:07:26.437Z,69.00
2018-09-27T17:09:55.070Z,71.30
2018-09-27T17:12:25.284Z,74.00
2018-09-27T17:14:53.844Z,76.50
2018-09-27T17:17:22.616Z,77.00
2018-09-27T17:19:52.227Z,77.60
2018-09-27T17:22:20.741Z,79.00
2018-09-27T17:24:51.157Z,80.00
2018-09-27T17:27:19.657Z,80.80
2018-09-27T17:29:48.346Z,81.30
2018-09-27T17:32:16.693Z,82.20
2018-09-27T17:34:45.351Z,83.70
2018-09-27T17:37:13.803Z,84.60
2018-09-27T17:39:42.355Z,84.60
2018-09-27T17:42:10.954Z,84.70
2018-09-27T17:44:42.935Z,84.90
2018-09-27T17:47:11.617Z,84.90
2018-09-27T17:49:40.168Z,85.10
2018-09-27T17:52:08.722Z,85.60
2018-09-27T17:54:37.234Z,85.60
2018-09-27T17:57:05.747Z,86.40
2018-09-27T17:59:34.252Z,86.00
2018-09-27T18:02:02.742Z,87.80
2018-09-27T18:04:31.223Z,87.20
2018-09-27T18:06:59.738Z,88.00
2018-09-27T18:09:28.294Z,89.70
2018-09-27T18:11:56.835Z,89.40
2018-09-27T18:14:25.322Z,90.00
2018-09-27T18:16:59.537Z,90.20
2018-09-27T18:19:29.663Z,91.10
2018-09-27T18:22:02.449Z,91.20
2018-09-27T18:24:34.211Z,91.30
2018-09-27T18:27:03.608Z,91.50
2018-09-27T18:29:33.812Z,91.60
2018-09-27T18:32:04.957Z,91.60
2018-09-27T18:34:36.470Z,91.90
2018-09-27T18:37:07.920Z,92.70
2018-09-27T18:39:36.927Z,92.70
2018-09-27T18:42:07.448Z,93.10
2018-09-27T18:44:39.473Z,92.90
2018-09-27T18:47:09.258Z,93.40
2018-09-27T18:49:39.806Z,93.60
2018-09-27T18:52:15.809Z,93.50
2018-09-27T18:54:46.604Z,93.50
2018-09-27T18:57:15.878Z,93.90
2018-09-27T18:59:44.577Z,93.90
2018-09-27T19:02:15.121Z,93.60
2018-09-27T19:04:43.800Z,94.00
2018-09-27T19:07:12.321Z,94.00
2018-09-27T19:09:41.065Z,94.10
2018-09-27T19:12:09.592Z,94.00
2018-09-27T19:14:38.119Z,94.20
2018-09-27T19:17:08.264Z,94.40
2018-09-27T19:19:37.034Z,94.40
2018-09-27T19:22:06.502Z,94.50
2018-09-27T19:24:35.250Z,94.60
2018-09-27T19:27:03.761Z,94.70
2018-09-27T19:29:32.278Z,94.70
2018-09-27T19:32:00.814Z,94.90
2018-09-27T19:34:29.346Z,95.20
2018-09-27T19:36:58.879Z,95.70
2018-09-27T19:39:27.740Z,96.00
2018-09-27T19:41:58.172Z,97.00
2018-09-27T19:44:29.197Z,97.00
2018-09-27T19:46:57.724Z,97.60
2018-09-27T19:49:30.258Z,97.70
2018-09-27T19:52:01.703Z,97.80
2018-09-27T19:54:30.294Z,97.80
2018-09-27T19:56:58.911Z,98.00
2018-09-27T19:59:27.496Z,97.70
2018-09-27T20:01:57.349Z,97.60
2018-09-27T20:04:27.101Z,97.70
2018-09-27T20:06:55.697Z,97.90
2018-09-27T20:09:24.167Z,98.20
2018-09-27T20:11:52.656Z,98.30
2018-09-27T20:14:21.325Z,98.60
2018-09-27T20:16:49.922Z,98.60
2018-09-27T20:19:18.406Z,98.90
2018-09-27T20:21:46.916Z,98.90
2018-09-27T20:24:15.473Z,98.50
2018-09-27T20:26:44.012Z,98.70
2018-09-27T20:29:12.854Z,98.90
2018-09-27T20:31:41.373Z,98.60
2018-09-27T20:34:09.969Z,98.50
2018-09-27T20:36:38.423Z,98.60
2018-09-27T20:39:07.194Z,98.60
2018-09-27T20:41:35.720Z,98.70
2018-09-27T20:44:04.263Z,98.70
2018-09-27T20:46:32.818Z,98.70
2018-09-27T20:49:02.183Z,98.50
2018-09-27T20:51:31.014Z,98.50
2018-09-27T20:54:00.795Z,98.60
2018-09-27T20:56:29.365Z,98.60
2018-09-27T20:58:58.045Z,99.40
2018-09-27T21:01:26.965Z,99.70
2018-09-27T21:03:55.673Z,99.50
2018-09-27T21:06:24.262Z,99.40
2018-09-27T21:08:53.106Z,99.80
2018-09-27T21:11:21.723Z,99.90
2018-09-27T21:13:50.184Z,99.90
2018-09-27T21:16:18.733Z,99.80
2018-09-27T21:18:47.244Z,99.90
2018-09-27T21:21:15.764Z,99.90
2018-09-27T21:23:44.344Z,99.90
2018-09-27T21:26:12.866Z,99.90
2018-09-27T21:28:41.389Z,99.90
2018-09-27T21:31:09.886Z,99.90
2018-09-27T21:33:38.407Z,99.90
2018-09-27T21:36:07.370Z,99.90
2018-09-27T21:38:35.846Z,99.90
2018-09-27T21:41:04.395Z,99.90
2018-09-27T21:43:32.943Z,99.90
2018-09-27T21:46:01.446Z,99.90
2018-09-27T21:48:29.971Z,99.90
2018-09-27T21:50:58.490Z,99.90
2018-09-27T21:53:27.035Z,99.90
2018-09-27T21:55:55.554Z,99.90
